• Join FlightAware (Why Join?)
  • Login
  • US Flag 
01:06PM EDT


 

Airport Tracker/Info


-or-


 

Live Flight TrackerFlight Track Log ✈ DAL6115 ✈ 21-Apr-2013 ✈ KJFK - KROC

Flight Track Log - Related Links

Times and Time Zones

All times are in EDT time to prevent confusion due to time zone crossing. See the DAL6115 flight status page for this flight to view local times or setup timezone preferences in your user account.

Time Position Orientation Groundspeed Altitude Reporting Facility
EDT Latitude Longitude Course Direction KTS MPH feet Rate Location/Type
09:54AM 40.6333 -73.8500 316° Northwest 196 226 2,300  Level New York TRACON
09:55AM 40.5833 -73.8667 194° South 233 268 5,300 2,340 Climbing New York TRACON
09:56AM 40.8167 -74.0202 270° West  Level FlightAware Approximate
09:56AM 40.5833 -73.7833 90° East 252 290 7,000  Level New York TRACON
09:57AM 40.8728 -74.1081 315° West  Level FlightAware Approximate
09:57AM 40.5833 -73.6833 90° East 284 327 8,800  Level New York TRACON
09:58AM 40.9362 -74.1917 316° Northwest  Level FlightAware Approximate
09:58AM 40.6500 -73.6167 37° Northeast 277 319 9,000  Level New York TRACON
09:59AM 41.0005 -74.2744 316° Northwest  Level FlightAware Approximate
09:59AM 40.7167 -73.5833 21° North 270 311 10,300  Level New York TRACON
10:00AM 40.8000 -73.6167 343° North 295 339 12,100 1,620 Climbing New York TRACON
10:02AM 40.9375 -73.7158 331° Northwest 312 359 15,300 1,200 Climbing New York Center
10:04AM 41.0239 -73.9175 300° West 323 372 17,000 540 Climbing New York Center
10:05AM 41.0661 -74.0461 294° West 345 397 17,000 540 Level New York Center
10:06AM 41.1025 -74.1661 292° West 352 405 18,100 1,080 Climbing New York Center
10:07AM 41.1367 -74.2781 292° West 347 399 19,200 1,320 Climbing New York Center
10:08AM 41.1728 -74.3931 293° West 341 392 20,800 1,380 Climbing New York Center
10:09AM 41.2086 -74.5108 292° West 335 386 22,000 540 Climbing New York Center
10:10AM 41.2572 -74.6211 300° West 341 392 22,000  Level New York Center
10:11AM 41.3181 -74.7322 306° West 363 418 22,000  Level New York Center
10:12AM 41.3811 -74.8328 310° West 379 436 22,000  Level New York Center
10:13AM 41.4464 -74.9392 309° West 379 436 22,000  Level New York Center
10:14AM 41.5131 -75.0486 309° West 379 436 22,000  Level New York Center
10:15AM 41.5717 -75.1575 306° West 379 436 22,000  Level New York Center
10:16AM 41.6106 -75.2850 292° West 374 430 22,000  Level New York Center
10:17AM 41.6475 -75.4097 292° West 369 425 22,000  Level New York Center
10:18AM 41.6839 -75.5372 291° West 369 425 22,000  Level New York Center
10:19AM 41.7203 -75.6675 291° West 369 425 22,000  Level New York Center
10:20AM 41.7547 -75.7925 290° West 369 425 22,000  Level New York Center
10:21AM 41.7931 -75.9206 292° West 369 425 22,000  Level New York Center
10:22AM 41.8397 -76.0411 297° West 374 430 22,000 -180 Level New York Center
10:23AM 41.9122 -76.1417 314° West 374 430 21,700 -720 Descending New York Center
10:24AM 41.9825 -76.2422 313° West 374 430 20,600 -1,080 Descending New York Center
10:25AM 42.0528 -76.3428 313° West 374 430 19,600 -1,020 Descending New York Center
10:26AM 42.1272 -76.4442 315° West 374 430 18,600 -780 Descending New York Center
10:27AM 42.1956 -76.5397 314° West 368 423 18,100 -840 Descending New York Center
10:28AM 42.2828 -76.6564 315° West 370 426 16,800 -1,020 Descending Cleveland Center
10:29AM 42.3508 -76.7533 314° West 364 419 15,900 -480 Descending Cleveland Center
10:30AM 42.4183 -76.8478 314° West 358 412 15,900  Level Cleveland Center
10:31AM 42.4861 -76.9453 313° West 358 412 15,900 -240 Level Cleveland Center
10:31AM 42.5408 -77.0208 315° West 351 404 15,500 -720 Descending Cleveland Center
10:32AM 42.5578 -77.0369 325° Northwest 358 412 15,200 -1,080 Descending Cleveland Center
10:33AM 42.6228 -77.1122 320° Northwest 346 398 14,300 -1,140 Descending Cleveland Center
10:34AM 42.6961 -77.1958 320° Northwest 346 398 13,200 -1,140 Descending Cleveland Center
10:35AM 42.7811 -77.2478 336° Northwest 325 374 12,100 -1,200 Descending Cleveland Center
10:36AM 42.8569 -77.2806 342° North 314 361 11,000 -1,140 Descending Cleveland Center
10:36AM 42.8717 -77.2883 339° North 321 369 10,800 -1,320 Descending Cleveland Center
10:37AM 42.9289 -77.3164 340° North 253 291 9,700 -1,440 Descending Cleveland Center
10:37AM 42.9414 -77.3214 344° North 295 339 9,400 -2,100 Descending Cleveland Center
10:38AM 42.9986 -77.3497 340° North 247 284 7,600 -2,100 Descending Cleveland Center
10:39AM 43.0600 -77.3836 338° Northwest 238 274 5,700 -1,440 Descending Cleveland Center
10:40AM 43.1278 -77.4228 337° Northwest 235 270 4,400 -1,320 Descending Cleveland Center
10:41AM 43.1692 -77.4917 309° West 233 268 2,900 -1,680 Descending Cleveland Center